sensor_id;sensor_type;location;lat;lon;timestamp;P1;durP1;ratioP1;P2;durP2;ratioP2
3407;SDS011;1717;50.240;8.406;2023-03-23T14:47:10;1.93;;;1.30;;
3407;SDS011;1717;50.240;8.406;2023-03-23T14:49:44;4.00;;;1.23;;
3407;SDS011;1717;50.240;8.406;2023-03-23T14:52:13;2.77;;;1.37;;
3407;SDS011;1717;50.240;8.406;2023-03-23T14:54:41;1.73;;;1.63;;
3407;SDS011;1717;50.240;8.406;2023-03-23T14:57:11;1.03;;;1.03;;
3407;SDS011;1717;50.240;8.406;2023-03-23T14:59:39;2.13;;;1.93;;
3407;SDS011;1717;50.240;8.406;2023-03-23T15:02:11;3.33;;;1.50;;
3407;SDS011;1717;50.240;8.406;2023-03-23T15:04:40;1.70;;;1.60;;
3407;SDS011;1717;50.240;8.406;2023-03-23T15:07:09;1.83;;;1.37;;
3407;SDS011;1717;50.240;8.406;2023-03-23T15:09:38;1.60;;;1.50;;
3407;SDS011;1717;50.240;8.406;2023-03-23T15:12:11;2.00;;;1.67;;
3407;SDS011;1717;50.240;8.406;2023-03-23T15:14:47;2.30;;;1.60;;
3407;SDS011;1717;50.240;8.406;2023-03-23T15:17:19;1.60;;;1.50;;
3407;SDS011;1717;50.240;8.406;2023-03-23T15:19:48;1.97;;;1.50;;
3407;SDS011;1717;50.240;8.406;2023-03-23T15:22:17;1.80;;;1.70;;
3407;SDS011;1717;50.240;8.406;2023-03-23T15:24:47;1.90;;;1.70;;
3407;SDS011;1717;50.240;8.406;2023-03-23T15:27:15;1.87;;;1.70;;
3407;SDS011;1717;50.240;8.406;2023-03-23T15:29:47;2.43;;;1.23;;
3407;SDS011;1717;50.240;8.406;2023-03-23T15:32:24;2.53;;;1.87;;
3407;SDS011;1717;50.240;8.406;2023-03-23T15:34:52;1.70;;;1.60;;
3407;SDS011;1717;50.240;8.406;2023-03-23T15:37:21;1.43;;;1.30;;
3407;SDS011;1717;50.240;8.406;2023-03-23T15:39:52;1.93;;;1.73;;
3407;SDS011;1717;50.240;8.406;2023-03-23T15:42:20;1.87;;;1.63;;
3407;SDS011;1717;50.240;8.406;2023-03-23T15:44:54;3.97;;;1.63;;
3407;SDS011;1717;50.240;8.406;2023-03-23T15:47:45;2.70;;;1.60;;
3407;SDS011;1717;50.240;8.406;2023-03-23T15:50:14;1.57;;;1.47;;
3407;SDS011;1717;50.240;8.406;2023-03-23T15:52:42;3.30;;;2.20;;
3407;SDS011;1717;50.240;8.406;2023-03-23T15:55:18;1.90;;;1.70;;
3407;SDS011;1717;50.240;8.406;2023-03-23T15:57:50;2.00;;;1.80;;
3407;SDS011;1717;50.240;8.406;2023-03-23T16:00:18;3.63;;;1.80;;
3407;SDS011;1717;50.240;8.406;2023-03-23T16:02:49;3.00;;;2.70;;
3407;SDS011;1717;50.240;8.406;2023-03-23T16:05:19;2.23;;;2.00;;
3407;SDS011;1717;50.240;8.406;2023-03-23T16:07:46;4.20;;;2.17;;
3407;SDS011;1717;50.240;8.406;2023-03-23T16:10:14;3.37;;;1.93;;
3407;SDS011;1717;50.240;8.406;2023-03-23T16:12:43;3.73;;;2.00;;
3407;SDS011;1717;50.240;8.406;2023-03-23T16:15:10;5.23;;;2.20;;
3407;SDS011;1717;50.240;8.406;2023-03-23T16:17:37;3.73;;;1.83;;
3407;SDS011;1717;50.240;8.406;2023-03-23T16:20:10;2.63;;;1.53;;
3407;SDS011;1717;50.240;8.406;2023-03-23T16:22:38;4.40;;;2.17;;
3407;SDS011;1717;50.240;8.406;2023-03-23T16:25:05;2.20;;;2.00;;
3407;SDS011;1717;50.240;8.406;2023-03-23T16:27:33;3.93;;;2.20;;
3407;SDS011;1717;50.240;8.406;2023-03-23T16:30:00;1.93;;;1.80;;
3407;SDS011;1717;50.240;8.406;2023-03-23T16:32:28;2.90;;;2.13;;
3407;SDS011;1717;50.240;8.406;2023-03-23T16:34:55;2.27;;;1.80;;
3407;SDS011;1717;50.240;8.406;2023-03-23T16:37:24;2.30;;;2.10;;
3407;SDS011;1717;50.240;8.406;2023-03-23T16:39:51;4.87;;;2.10;;
3407;SDS011;1717;50.240;8.406;2023-03-23T16:42:18;2.40;;;1.63;;
3407;SDS011;1717;50.240;8.406;2023-03-23T16:44:44;3.80;;;2.40;;
3407;SDS011;1717;50.240;8.406;2023-03-23T16:47:15;2.93;;;1.73;;
3407;SDS011;1717;50.240;8.406;2023-03-23T16:49:47;2.00;;;1.90;;
3407;SDS011;1717;50.240;8.406;2023-03-23T16:52:15;2.40;;;2.10;;
3407;SDS011;1717;50.240;8.406;2023-03-23T16:54:43;3.10;;;2.87;;
3407;SDS011;1717;50.240;8.406;2023-03-23T16:57:10;3.40;;;2.50;;
3407;SDS011;1717;50.240;8.406;2023-03-23T16:59:38;2.60;;;2.40;;
3407;SDS011;1717;50.240;8.406;2023-03-23T17:02:05;3.50;;;2.63;;
3407;SDS011;1717;50.240;8.406;2023-03-23T17:04:32;2.70;;;2.50;;
3407;SDS011;1717;50.240;8.406;2023-03-23T17:06:59;3.73;;;3.00;;
3407;SDS011;1717;50.240;8.406;2023-03-23T17:09:26;2.77;;;2.20;;
3407;SDS011;1717;50.240;8.406;2023-03-23T17:11:55;3.40;;;2.90;;
3407;SDS011;1717;50.240;8.406;2023-03-23T17:14:22;2.10;;;1.83;;
3407;SDS011;1717;50.240;8.406;2023-03-23T17:16:49;2.70;;;1.83;;
3407;SDS011;1717;50.240;8.406;2023-03-23T17:19:17;3.83;;;1.83;;
3407;SDS011;1717;50.240;8.406;2023-03-23T17:21:44;3.37;;;1.90;;
3407;SDS011;1717;50.240;8.406;2023-03-23T17:24:11;3.07;;;2.63;;
3407;SDS011;1717;50.240;8.406;2023-03-23T17:26:38;2.13;;;1.97;;
3407;SDS011;1717;50.240;8.406;2023-03-23T17:29:07;2.23;;;1.53;;
3407;SDS011;1717;50.240;8.406;2023-03-23T17:31:35;2.93;;;1.93;;
3407;SDS011;1717;50.240;8.406;2023-03-23T17:34:02;3.10;;;2.80;;
3407;SDS011;1717;50.240;8.406;2023-03-23T17:36:30;3.93;;;2.10;;
3407;SDS011;1717;50.240;8.406;2023-03-23T17:38:57;3.30;;;2.80;;
3407;SDS011;1717;50.240;8.406;2023-03-23T17:41:24;3.33;;;2.37;;
3407;SDS011;1717;50.240;8.406;2023-03-23T17:43:51;3.70;;;2.70;;
3407;SDS011;1717;50.240;8.406;2023-03-23T17:46:19;2.60;;;2.40;;
3407;SDS011;1717;50.240;8.406;2023-03-23T17:48:46;3.07;;;2.57;;
3407;SDS011;1717;50.240;8.406;2023-03-23T17:51:14;4.00;;;3.00;;
3407;SDS011;1717;50.240;8.406;2023-03-23T17:53:41;2.53;;;2.33;;
3407;SDS011;1717;50.240;8.406;2023-03-23T17:56:08;4.07;;;2.70;;
3407;SDS011;1717;50.240;8.406;2023-03-23T17:58:36;3.53;;;2.80;;
3407;SDS011;1717;50.240;8.406;2023-03-23T18:01:03;3.30;;;2.90;;
3407;SDS011;1717;50.240;8.406;2023-03-23T18:03:32;3.50;;;3.20;;
3407;SDS011;1717;50.240;8.406;2023-03-23T18:06:00;3.23;;;2.97;;
3407;SDS011;1717;50.240;8.406;2023-03-23T18:08:29;3.87;;;3.10;;
3407;SDS011;1717;50.240;8.406;2023-03-23T18:10:56;3.90;;;3.33;;
3407;SDS011;1717;50.240;8.406;2023-03-23T18:13:25;4.53;;;3.00;;
3407;SDS011;1717;50.240;8.406;2023-03-23T18:15:53;2.90;;;2.70;;
3407;SDS011;1717;50.240;8.406;2023-03-23T18:18:21;4.10;;;2.80;;
3407;SDS011;1717;50.240;8.406;2023-03-23T18:20:53;3.43;;;3.03;;
3407;SDS011;1717;50.240;8.406;2023-03-23T18:23:21;2.97;;;2.57;;
3407;SDS011;1717;50.240;8.406;2023-03-23T18:25:48;4.73;;;3.27;;
3407;SDS011;1717;50.240;8.406;2023-03-23T18:28:17;4.70;;;2.80;;
3407;SDS011;1717;50.240;8.406;2023-03-23T18:30:45;4.03;;;3.20;;
3407;SDS011;1717;50.240;8.406;2023-03-23T18:33:13;4.00;;;2.60;;
3407;SDS011;1717;50.240;8.406;2023-03-23T18:35:40;3.90;;;2.93;;
3407;SDS011;1717;50.240;8.406;2023-03-23T18:38:09;6.50;;;3.00;;
3407;SDS011;1717;50.240;8.406;2023-03-23T18:40:40;4.63;;;3.30;;
3407;SDS011;1717;50.240;8.406;2023-03-23T18:43:08;4.00;;;3.33;;
3407;SDS011;1717;50.240;8.406;2023-03-23T18:45:35;8.07;;;3.27;;
3407;SDS011;1717;50.240;8.406;2023-03-23T18:48:03;3.00;;;2.70;;
3407;SDS011;1717;50.240;8.406;2023-03-23T18:50:30;5.60;;;3.50;;
3407;SDS011;1717;50.240;8.406;2023-03-23T18:52:58;3.00;;;2.70;;
3407;SDS011;1717;50.240;8.406;2023-03-23T18:55:26;3.20;;;2.30;;
3407;SDS011;1717;50.240;8.406;2023-03-23T18:57:54;3.70;;;2.77;;
3407;SDS011;1717;50.240;8.406;2023-03-23T19:00:24;3.30;;;3.00;;
3407;SDS011;1717;50.240;8.406;2023-03-23T19:02:51;2.50;;;2.20;;
3407;SDS011;1717;50.240;8.406;2023-03-23T19:05:18;4.70;;;2.80;;
3407;SDS011;1717;50.240;8.406;2023-03-23T19:07:45;3.90;;;2.50;;
3407;SDS011;1717;50.240;8.406;2023-03-23T19:10:12;3.30;;;3.00;;
3407;SDS011;1717;50.240;8.406;2023-03-23T19:12:42;2.80;;;2.60;;
3407;SDS011;1717;50.240;8.406;2023-03-23T19:15:10;3.40;;;3.10;;
3407;SDS011;1717;50.240;8.406;2023-03-23T19:17:37;4.97;;;2.87;;
3407;SDS011;1717;50.240;8.406;2023-03-23T19:20:04;4.20;;;2.83;;
3407;SDS011;1717;50.240;8.406;2023-03-23T19:22:34;4.00;;;3.03;;
3407;SDS011;1717;50.240;8.406;2023-03-23T19:25:01;3.63;;;2.97;;
3407;SDS011;1717;50.240;8.406;2023-03-23T19:27:28;3.57;;;2.73;;
3407;SDS011;1717;50.240;8.406;2023-03-23T19:29:57;6.13;;;3.60;;
3407;SDS011;1717;50.240;8.406;2023-03-23T19:32:24;3.37;;;2.70;;
3407;SDS011;1717;50.240;8.406;2023-03-23T19:34:51;3.33;;;3.03;;
3407;SDS011;1717;50.240;8.406;2023-03-23T19:37:18;3.20;;;2.33;;
3407;SDS011;1717;50.240;8.406;2023-03-23T19:39:47;2.30;;;2.10;;
3407;SDS011;1717;50.240;8.406;2023-03-23T19:42:14;4.47;;;2.80;;
3407;SDS011;1717;50.240;8.406;2023-03-23T19:44:42;3.90;;;2.97;;
3407;SDS011;1717;50.240;8.406;2023-03-23T19:47:11;4.37;;;2.50;;
3407;SDS011;1717;50.240;8.406;2023-03-23T19:49:38;3.37;;;2.90;;
3407;SDS011;1717;50.240;8.406;2023-03-23T19:52:05;4.87;;;3.17;;
3407;SDS011;1717;50.240;8.406;2023-03-23T19:54:33;3.50;;;3.20;;
3407;SDS011;1717;50.240;8.406;2023-03-23T19:57:01;4.30;;;3.00;;
3407;SDS011;1717;50.240;8.406;2023-03-23T19:59:29;3.10;;;2.73;;
3407;SDS011;1717;50.240;8.406;2023-03-23T20:01:56;4.50;;;2.87;;
3407;SDS011;1717;50.240;8.406;2023-03-23T20:04:24;2.87;;;2.60;;
3407;SDS011;1717;50.240;8.406;2023-03-23T20:06:51;4.07;;;3.07;;
3407;SDS011;1717;50.240;8.406;2023-03-23T20:09:20;3.50;;;3.13;;
3407;SDS011;1717;50.240;8.406;2023-03-23T20:11:47;3.20;;;2.90;;
3407;SDS011;1717;50.240;8.406;2023-03-23T20:14:14;3.70;;;3.20;;
3407;SDS011;1717;50.240;8.406;2023-03-23T20:16:41;4.10;;;3.10;;
3407;SDS011;1717;50.240;8.406;2023-03-23T20:19:08;3.20;;;3.00;;
3407;SDS011;1717;50.240;8.406;2023-03-23T20:21:36;3.10;;;2.90;;
3407;SDS011;1717;50.240;8.406;2023-03-23T20:24:03;3.43;;;2.83;;
3407;SDS011;1717;50.240;8.406;2023-03-23T20:26:31;4.30;;;2.80;;
3407;SDS011;1717;50.240;8.406;2023-03-23T20:28:59;3.40;;;3.10;;
3407;SDS011;1717;50.240;8.406;2023-03-23T20:31:27;3.40;;;3.10;;
3407;SDS011;1717;50.240;8.406;2023-03-23T20:33:56;3.63;;;3.20;;
3407;SDS011;1717;50.240;8.406;2023-03-23T20:36:25;3.00;;;2.60;;
3407;SDS011;1717;50.240;8.406;2023-03-23T20:38:59;3.70;;;2.57;;
3407;SDS011;1717;50.240;8.406;2023-03-23T20:41:27;3.67;;;3.37;;
3407;SDS011;1717;50.240;8.406;2023-03-23T20:43:54;3.77;;;2.93;;
3407;SDS011;1717;50.240;8.406;2023-03-23T20:46:23;4.47;;;3.00;;
3407;SDS011;1717;50.240;8.406;2023-03-23T20:48:51;3.40;;;3.10;;
3407;SDS011;1717;50.240;8.406;2023-03-23T20:51:18;6.07;;;3.47;;
3407;SDS011;1717;50.240;8.406;2023-03-23T20:53:46;2.67;;;2.43;;
3407;SDS011;1717;50.240;8.406;2023-03-23T20:56:15;4.37;;;3.07;;
3407;SDS011;1717;50.240;8.406;2023-03-23T20:58:43;3.47;;;2.70;;
3407;SDS011;1717;50.240;8.406;2023-03-23T21:01:11;3.37;;;3.07;;
3407;SDS011;1717;50.240;8.406;2023-03-23T21:03:39;3.50;;;2.40;;
3407;SDS011;1717;50.240;8.406;2023-03-23T21:06:08;3.77;;;3.00;;
3407;SDS011;1717;50.240;8.406;2023-03-23T21:08:36;6.00;;;3.00;;
3407;SDS011;1717;50.240;8.406;2023-03-23T21:11:05;3.30;;;2.53;;
3407;SDS011;1717;50.240;8.406;2023-03-23T21:13:36;3.17;;;2.43;;
3407;SDS011;1717;50.240;8.406;2023-03-23T21:16:03;5.47;;;3.40;;
3407;SDS011;1717;50.240;8.406;2023-03-23T21:18:31;2.80;;;2.53;;
3407;SDS011;1717;50.240;8.406;2023-03-23T21:20:59;3.90;;;3.60;;
3407;SDS011;1717;50.240;8.406;2023-03-23T21:23:26;3.67;;;3.33;;
3407;SDS011;1717;50.240;8.406;2023-03-23T21:25:57;3.33;;;3.03;;
3407;SDS011;1717;50.240;8.406;2023-03-23T21:28:26;3.90;;;3.10;;
3407;SDS011;1717;50.240;8.406;2023-03-23T21:30:55;3.60;;;3.30;;
3407;SDS011;1717;50.240;8.406;2023-03-23T21:33:26;3.30;;;2.93;;
3407;SDS011;1717;50.240;8.406;2023-03-23T21:35:53;3.30;;;3.00;;
3407;SDS011;1717;50.240;8.406;2023-03-23T21:38:20;4.60;;;3.40;;
3407;SDS011;1717;50.240;8.406;2023-03-23T21:40:50;5.50;;;5.00;;
3407;SDS011;1717;50.240;8.406;2023-03-23T21:43:17;4.27;;;3.87;;
3407;SDS011;1717;50.240;8.406;2023-03-23T21:45:48;4.03;;;3.63;;
3407;SDS011;1717;50.240;8.406;2023-03-23T21:48:21;4.70;;;3.27;;
3407;SDS011;1717;50.240;8.406;2023-03-23T21:50:49;4.20;;;3.80;;
3407;SDS011;1717;50.240;8.406;2023-03-23T21:53:15;5.20;;;4.10;;
3407;SDS011;1717;50.240;8.406;2023-03-23T21:55:43;5.00;;;3.87;;
3407;SDS011;1717;50.240;8.406;2023-03-23T21:58:15;4.83;;;3.80;;
3407;SDS011;1717;50.240;8.406;2023-03-23T22:00:43;3.97;;;3.57;;
3407;SDS011;1717;50.240;8.406;2023-03-23T22:03:10;5.43;;;4.60;;
3407;SDS011;1717;50.240;8.406;2023-03-23T22:05:41;6.40;;;3.40;;
3407;SDS011;1717;50.240;8.406;2023-03-23T22:08:08;4.20;;;3.80;;
3407;SDS011;1717;50.240;8.406;2023-03-23T22:10:38;5.00;;;3.47;;
3407;SDS011;1717;50.240;8.406;2023-03-23T22:13:05;4.40;;;4.00;;
3407;SDS011;1717;50.240;8.406;2023-03-23T22:15:32;5.00;;;4.50;;
3407;SDS011;1717;50.240;8.406;2023-03-23T22:17:59;4.13;;;3.47;;
3407;SDS011;1717;50.240;8.406;2023-03-23T22:20:26;4.20;;;3.80;;
3407;SDS011;1717;50.240;8.406;2023-03-23T22:22:56;5.00;;;4.43;;
3407;SDS011;1717;50.240;8.406;2023-03-23T22:25:23;4.40;;;4.10;;
3407;SDS011;1717;50.240;8.406;2023-03-23T22:27:50;5.00;;;4.03;;
3407;SDS011;1717;50.240;8.406;2023-03-23T22:30:19;4.20;;;3.47;;
3407;SDS011;1717;50.240;8.406;2023-03-23T22:32:46;7.33;;;4.20;;
3407;SDS011;1717;50.240;8.406;2023-03-23T22:35:13;7.63;;;4.50;;
3407;SDS011;1717;50.240;8.406;2023-03-23T22:37:40;5.83;;;4.60;;
3407;SDS011;1717;50.240;8.406;2023-03-23T22:40:08;5.30;;;4.07;;
3407;SDS011;1717;50.240;8.406;2023-03-23T22:42:36;5.63;;;4.80;;
3407;SDS011;1717;50.240;8.406;2023-03-23T22:45:03;4.83;;;4.30;;
3407;SDS011;1717;50.240;8.406;2023-03-23T22:47:33;6.13;;;5.47;;
3407;SDS011;1717;50.240;8.406;2023-03-23T22:50:00;6.57;;;4.63;;
3407;SDS011;1717;50.240;8.406;2023-03-23T22:52:27;5.33;;;4.67;;
3407;SDS011;1717;50.240;8.406;2023-03-23T22:54:55;7.10;;;4.83;;
3407;SDS011;1717;50.240;8.406;2023-03-23T22:57:23;6.33;;;5.03;;
3407;SDS011;1717;50.240;8.406;2023-03-23T22:59:50;4.60;;;4.20;;
3407;SDS011;1717;50.240;8.406;2023-03-23T23:02:17;5.90;;;5.30;;
3407;SDS011;1717;50.240;8.406;2023-03-23T23:04:45;4.40;;;4.00;;
3407;SDS011;1717;50.240;8.406;2023-03-23T23:07:11;6.57;;;5.07;;
3407;SDS011;1717;50.240;8.406;2023-03-23T23:09:39;6.20;;;5.10;;
3407;SDS011;1717;50.240;8.406;2023-03-23T23:12:06;5.23;;;4.73;;
3407;SDS011;1717;50.240;8.406;2023-03-23T23:14:36;5.20;;;4.70;;
3407;SDS011;1717;50.240;8.406;2023-03-23T23:17:03;7.67;;;5.33;;
3407;SDS011;1717;50.240;8.406;2023-03-23T23:19:31;5.50;;;5.00;;
3407;SDS011;1717;50.240;8.406;2023-03-23T23:21:58;6.50;;;5.17;;
3407;SDS011;1717;50.240;8.406;2023-03-23T23:24:25;5.70;;;4.57;;
3407;SDS011;1717;50.240;8.406;2023-03-23T23:26:52;6.07;;;5.20;;
3407;SDS011;1717;50.240;8.406;2023-03-23T23:29:19;5.80;;;4.63;;
3407;SDS011;1717;50.240;8.406;2023-03-23T23:31:47;6.00;;;5.50;;
3407;SDS011;1717;50.240;8.406;2023-03-23T23:34:14;5.27;;;4.77;;
3407;SDS011;1717;50.240;8.406;2023-03-23T23:36:41;5.90;;;5.20;;
3407;SDS011;1717;50.240;8.406;2023-03-23T23:39:09;5.77;;;5.27;;
3407;SDS011;1717;50.240;8.406;2023-03-23T23:41:37;5.47;;;4.87;;
3407;SDS011;1717;50.240;8.406;2023-03-23T23:44:04;5.60;;;4.50;;
3407;SDS011;1717;50.240;8.406;2023-03-23T23:46:31;6.67;;;5.17;;
3407;SDS011;1717;50.240;8.406;2023-03-23T23:49:00;5.70;;;5.13;;
3407;SDS011;1717;50.240;8.406;2023-03-23T23:51:28;5.80;;;5.30;;
3407;SDS011;1717;50.240;8.406;2023-03-23T23:53:57;6.83;;;5.40;;
3407;SDS011;1717;50.240;8.406;2023-03-23T23:56:25;5.50;;;5.00;;
3407;SDS011;1717;50.240;8.406;2023-03-23T23:58:53;7.57;;;5.63;;
